Time;durP1;ratioP1;P1;durP2;ratioP2;P2;SDS_P1;SDS_P2;PMS_P1;PMS_P2;Temp;Humidity;BMP_temperature;BMP_pressure;BME280_temperature;BME280_humidity;BME280_pressure;Samples;Min_cycle;Max_cycle;Signal;HPM_P1;HPM_P2
2022/11/21 00:00:43;;;;;;;2.42;1.58;;;;;;;8.26;100.00;99408.97;5049022;28;20084;-67
2022/11/21 00:03:09;;;;;;;3.28;1.95;;;;;;;8.27;100.00;99408.09;5054480;28;20064;-67
2022/11/21 00:05:38;;;;;;;1.73;1.23;;;;;;;8.32;100.00;99400.84;5059512;28;20037;-67
2022/11/21 00:08:04;;;;;;;2.28;1.77;;;;;;;8.39;100.00;99402.34;5050318;28;20021;-67
2022/11/21 00:10:29;;;;;;;1.90;1.42;;;;;;;8.39;100.00;99403.22;5050720;28;20385;-67
2022/11/21 00:12:56;;;;;;;9.77;2.13;;;;;;;8.41;100.00;99408.47;5050838;28;20513;-67
2022/11/21 00:15:23;;;;;;;4.75;2.05;;;;;;;8.46;100.00;99414.50;5051610;28;20072;-66
2022/11/21 00:17:48;;;;;;;5.68;2.33;;;;;;;8.53;100.00;99405.44;5054750;28;20479;-67
2022/11/21 00:20:15;;;;;;;3.42;1.63;;;;;;;8.51;100.00;99392.22;5054788;28;20029;-68
2022/11/21 00:22:40;;;;;;;4.00;1.90;;;;;;;8.51;100.00;99397.53;5054775;28;20039;-67
2022/11/21 00:25:06;;;;;;;5.18;1.45;;;;;;;8.60;100.00;99402.50;5054820;28;20106;-67
2022/11/21 00:27:31;;;;;;;2.63;1.50;;;;;;;8.66;100.00;99390.81;5054487;28;20354;-68
2022/11/21 00:29:57;;;;;;;3.10;1.45;;;;;;;8.66;100.00;99391.72;5054653;28;20021;-67
2022/11/21 00:32:22;;;;;;;2.63;1.27;;;;;;;8.63;100.00;99390.94;5043581;28;20021;-67
2022/11/21 00:34:47;;;;;;;4.95;2.28;;;;;;;8.68;100.00;99383.69;5037277;28;20381;-67
2022/11/21 00:37:13;;;;;;;3.83;1.83;;;;;;;8.59;100.00;99376.91;5034372;28;20029;-67
2022/11/21 00:39:38;;;;;;;5.15;1.55;;;;;;;8.67;100.00;99380.16;5034460;28;20116;-67
2022/11/21 00:42:04;;;;;;;11.73;2.47;;;;;;;8.67;100.00;99379.28;5047746;28;20028;-67
2022/11/21 00:44:29;;;;;;;3.55;1.50;;;;;;;8.60;100.00;99367.19;5053333;28;20037;-68
2022/11/21 00:46:55;;;;;;;2.72;1.50;;;;;;;8.66;100.00;99380.22;5054209;28;20040;-68
2022/11/21 00:49:20;;;;;;;4.60;1.55;;;;;;;8.63;100.00;99380.34;5054372;28;20040;-68
2022/11/21 00:51:45;;;;;;;4.82;1.40;;;;;;;8.68;100.00;99383.69;5054381;28;20116;-68
2022/11/21 00:54:11;;;;;;;3.70;1.58;;;;;;;8.66;100.00;99390.81;5054367;28;20112;-68
2022/11/21 00:56:36;;;;;;;5.20;1.70;;;;;;;8.64;100.00;99380.28;5053788;28;20021;-68
2022/11/21 00:59:02;;;;;;;2.85;1.50;;;;;;;8.62;100.00;99389.19;5052369;28;20066;-69
2022/11/21 01:01:27;;;;;;;1.70;1.20;;;;;;;8.67;100.00;99385.47;5054068;28;20033;-68
2022/11/21 01:03:53;;;;;;;3.80;1.25;;;;;;;8.63;100.00;99401.53;5063741;28;20074;-69
2022/11/21 01:06:18;;;;;;;1.70;1.48;;;;;;;8.66;100.00;99390.81;5049237;28;20440;-68
2022/11/21 01:08:44;;;;;;;2.63;1.42;;;;;;;8.62;100.00;99390.06;5034098;28;20028;-68
2022/11/21 01:11:15;;;;;;;4.57;1.75;;;;;;;8.63;100.00;99396.25;5033986;28;20028;-69
2022/11/21 01:13:41;;;;;;;1.92;1.33;;;;;;;8.64;100.00;99392.66;5034037;28;20060;-68
2022/11/21 01:16:09;;;;;;;2.92;1.42;;;;;;;8.62;100.00;99390.06;5033695;28;20615;-68
2022/11/21 01:18:35;;;;;;;1.83;1.35;;;;;;;8.68;100.00;99396.94;5033918;28;20048;-68
2022/11/21 01:21:02;;;;;;;3.35;1.40;;;;;;;8.61;100.00;99382.16;5033806;28;20022;-68
2022/11/21 01:23:28;;;;;;;2.45;1.30;;;;;;;8.73;100.00;99397.66;5033673;28;20041;-67
2022/11/21 01:25:53;;;;;;;2.00;1.52;;;;;;;8.80;100.00;99404.44;5039767;28;20025;-67
2022/11/21 01:28:19;;;;;;;2.40;1.50;;;;;;;8.81;100.00;99401.75;5051522;28;20480;-67
2022/11/21 01:30:44;;;;;;;2.50;1.58;;;;;;;8.85;100.00;99391.91;5053659;28;20116;-68
2022/11/21 01:33:10;;;;;;;3.70;1.45;;;;;;;8.83;100.00;99393.75;5041607;28;20120;-67
2022/11/21 01:35:35;;;;;;;1.23;1.13;;;;;;;8.85;100.00;99390.13;5033357;28;20021;-67
2022/11/21 01:38:00;;;;;;;2.10;1.35;;;;;;;8.88;100.00;99383.84;5033547;28;20128;-67
2022/11/21 01:40:26;;;;;;;4.00;1.50;;;;;;;8.90;100.00;99385.53;5033317;28;20068;-67
2022/11/21 01:42:53;;;;;;;5.07;1.70;;;;;;;8.82;100.00;99369.03;5033478;28;20460;-67
2022/11/21 01:45:53;;;;;;;2.63;1.60;;;;;;;8.92;100.00;99372.19;5033274;28;20029;-66
2022/11/21 01:48:20;;;;;;;2.47;1.30;;;;;;;8.85;100.00;99368.91;5033352;28;20044;-66
2022/11/21 01:50:46;;;;;;;4.88;1.40;;;;;;;8.86;100.00;99369.78;5046791;28;20039;-67
2022/11/21 01:53:11;;;;;;;2.80;1.40;;;;;;;8.82;100.00;99366.38;5052964;28;20084;-66
2022/11/21 01:55:37;;;;;;;2.70;1.13;;;;;;;8.76;100.00;99371.03;5052745;28;20021;-66
2022/11/21 01:58:02;;;;;;;3.42;1.15;;;;;;;8.70;100.00;99350.88;5052952;28;20100;-67
2022/11/21 02:00:39;;;;;;;2.70;1.50;;;;;;;8.66;100.00;99365.19;5052652;28;20052;-67
2022/11/21 02:03:09;;;;;;;3.08;1.20;;;;;;;8.48;100.00;99354.34;5042330;28;20035;-67
2022/11/21 02:05:37;;;;;;;5.65;1.15;;;;;;;8.53;100.00;99363.03;5061479;28;20043;-67
2022/11/21 02:08:15;;;;;;;2.40;1.38;;;;;;;8.44;100.00;99345.66;5032809;28;20029;-67
2022/11/21 02:10:48;;;;;;;3.50;1.17;;;;;;;8.50;100.00;99353.38;5032892;28;20060;-67
2022/11/21 02:13:14;;;;;;;4.47;1.52;;;;;;;8.50;100.00;99361.31;5032592;28;20152;-67
2022/11/21 02:15:40;;;;;;;1.42;1.02;;;;;;;8.51;100.00;99348.94;5032939;28;20455;-66
2022/11/21 02:18:08;;;;;;;2.22;1.13;;;;;;;8.51;100.00;99354.25;5032624;28;20021;-67
2022/11/21 02:20:36;;;;;;;6.25;2.00;;;;;;;8.51;100.00;99343.66;5032610;28;20053;-66
2022/11/21 02:23:32;;;;;;;2.53;1.38;;;;;;;8.46;100.00;99340.28;5032458;28;20127;-67
2022/11/21 02:25:58;;;;;;;2.50;1.20;;;;;;;8.44;100.00;99342.13;5043131;28;20025;-67
2022/11/21 02:28:25;;;;;;;3.00;1.65;;;;;;;8.43;100.00;99332.44;5052305;28;20134;-67
2022/11/21 02:30:51;;;;;;;3.50;1.58;;;;;;;8.45;100.00;99333.28;5052472;28;20380;-67
2022/11/21 02:33:16;;;;;;;6.65;1.70;;;;;;;8.41;100.00;99318.38;5052351;28;20028;-67
2022/11/21 02:35:42;;;;;;;6.38;1.52;;;;;;;8.44;100.00;99311.19;5052450;28;20112;-66
2022/11/21 02:38:22;;;;;;;4.50;1.50;;;;;;;8.50;100.00;99328.69;5048446;28;20029;-67
2022/11/21 02:40:57;;;;;;;2.38;1.40;;;;;;;8.45;100.00;99315.56;5051373;28;20025;-67
2022/11/21 02:43:32;;;;;;;5.20;1.65;;;;;;;8.52;100.00;99327.69;5052120;28;20090;-67
2022/11/21 02:45:57;;;;;;;2.70;1.77;;;;;;;8.55;100.00;99329.38;5049011;28;20100;-67
2022/11/21 02:48:23;;;;;;;3.92;1.20;;;;;;;8.51;100.00;99322.44;5051879;28;20111;-67
2022/11/21 02:50:49;;;;;;;2.15;1.42;;;;;;;8.45;100.00;99304.13;5052101;28;20021;-67
2022/11/21 02:53:16;;;;;;;2.28;1.52;;;;;;;8.59;100.00;99325.69;5051987;28;20108;-66
2022/11/21 02:55:42;;;;;;;2.28;1.30;;;;;;;8.64;100.00;99321.09;5051934;28;20029;-67
2022/11/21 02:58:08;;;;;;;7.53;2.22;;;;;;;8.64;100.00;99321.09;5051743;28;20503;-66
2022/11/21 03:00:35;;;;;;;7.47;2.10;;;;;;;8.62;100.00;99317.63;5051507;28;20099;-67
2022/11/21 03:03:01;;;;;;;5.22;2.28;;;;;;;8.60;100.00;99322.97;5053909;28;20021;-67
2022/11/21 03:05:27;;;;;;;2.75;1.77;;;;;;;8.63;100.00;99314.91;5061170;28;20037;-67
2022/11/21 03:07:52;;;;;;;3.45;1.50;;;;;;;8.66;100.00;99319.25;5031818;28;20052;-67
2022/11/21 03:10:18;;;;;;;3.13;1.52;;;;;;;8.61;100.00;99321.19;5031686;28;20017;-67
2022/11/21 03:12:44;;;;;;;2.30;1.48;;;;;;;8.48;100.00;99302.22;5032031;28;20056;-66
2022/11/21 03:15:13;;;;;;;4.88;2.55;;;;;;;8.57;100.00;99301.00;5031697;28;20057;-66
2022/11/21 03:17:39;;;;;;;2.50;1.20;;;;;;;8.56;100.00;99310.78;5031386;28;20056;-66
2022/11/21 03:20:05;;;;;;;4.20;1.25;;;;;;;8.51;100.00;99293.28;5031420;28;20064;-67
2022/11/21 03:22:31;;;;;;;4.82;1.45;;;;;;;8.51;100.00;99306.53;5031575;28;20029;-67
2022/11/21 03:24:57;;;;;;;5.03;1.48;;;;;;;8.51;100.00;99302.13;5035012;28;20031;-66
2022/11/21 03:27:22;;;;;;;6.13;1.42;;;;;;;8.51;100.00;99303.91;5051386;28;20035;-67
2022/11/21 03:29:48;;;;;;;2.03;1.10;;;;;;;8.54;100.00;99309.06;5051100;28;20103;-67
2022/11/21 03:32:13;;;;;;;1.40;1.00;;;;;;;8.55;100.00;99308.19;5051239;28;20039;-67
2022/11/21 03:34:39;;;;;;;3.38;1.25;;;;;;;8.55;100.00;99302.88;5051141;28;20485;-67
2022/11/21 03:37:04;;;;;;;1.75;1.40;;;;;;;8.56;100.00;99305.47;5033404;28;20040;-67
2022/11/21 03:39:30;;;;;;;2.40;1.17;;;;;;;8.54;100.00;99303.78;5047922;28;20021;-67
2022/11/21 03:41:55;;;;;;;3.80;1.30;;;;;;;8.47;100.00;99299.59;5051219;28;20021;-67
2022/11/21 03:44:21;;;;;;;7.72;1.20;;;;;;;8.48;100.00;99296.06;5051100;28;20043;-67
2022/11/21 03:46:47;;;;;;;3.30;1.10;;;;;;;8.43;100.00;99298.00;5050692;28;20032;-67
2022/11/21 03:49:13;;;;;;;3.50;1.13;;;;;;;8.34;100.00;99287.72;5050804;28;20033;-67
2022/11/21 03:51:39;;;;;;;2.55;0.90;;;;;;;8.40;100.00;99300.75;5049254;28;20025;-67
2022/11/21 03:54:04;;;;;;;2.10;1.10;;;;;;;8.48;100.00;99301.34;5050231;28;20801;-67
2022/11/21 03:56:30;;;;;;;2.90;1.17;;;;;;;8.47;100.00;99295.19;5050266;28;20603;-67
2022/11/21 03:58:55;;;;;;;1.70;0.90;;;;;;;8.49;100.00;99295.13;5049674;28;20201;-67
2022/11/21 04:01:23;;;;;;;3.35;1.13;;;;;;;8.50;100.00;99304.81;5050082;28;20049;-67
2022/11/21 04:03:48;;;;;;;3.75;1.20;;;;;;;8.56;100.00;99304.59;5059090;28;20043;-67
2022/11/21 04:06:16;;;;;;;1.88;1.20;;;;;;;8.52;100.00;99302.97;5048050;28;20037;-67
2022/11/21 04:08:42;;;;;;;1.98;1.25;;;;;;;8.52;100.00;99298.53;5047653;28;20030;-67
2022/11/21 04:11:08;;;;;;;1.67;1.15;;;;;;;8.62;100.00;99309.66;5050777;28;20036;-66
2022/11/21 04:13:34;;;;;;;4.35;1.65;;;;;;;8.68;100.00;99315.59;5050773;28;20040;-67
2022/11/21 04:16:00;;;;;;;4.55;1.20;;;;;;;8.71;100.00;99304.03;5050562;28;20028;-67
2022/11/21 04:18:25;;;;;;;2.38;1.20;;;;;;;8.71;100.00;99309.34;5050674;28;20036;-67
2022/11/21 04:20:58;;;;;;;5.15;1.50;;;;;;;8.72;100.00;99305.75;5047066;28;20017;-67
2022/11/21 04:23:25;;;;;;;3.97;1.63;;;;;;;8.66;100.00;99300.69;5030852;28;20061;-67
2022/11/21 04:25:50;;;;;;;2.63;1.42;;;;;;;8.73;100.00;99304.88;5030726;28;20494;-67
2022/11/21 04:28:16;;;;;;;1.30;1.02;;;;;;;8.74;100.00;99304.81;5030652;28;20033;-67
2022/11/21 04:30:41;;;;;;;2.47;1.35;;;;;;;8.74;100.00;99309.22;5030686;28;20033;-66
2022/11/21 04:33:07;;;;;;;4.00;1.63;;;;;;;8.75;100.00;99310.94;5030724;28;20021;-67
2022/11/21 04:35:32;;;;;;;9.10;2.97;;;;;;;8.68;100.00;99307.66;5031127;28;20078;-67
2022/11/21 04:37:58;;;;;;;14.52;3.30;;;;;;;8.69;100.00;99312.06;5048396;28;20078;-66
2022/11/21 04:40:23;;;;;;;5.20;2.00;;;;;;;8.67;100.00;99313.00;5050562;28;20025;-66
2022/11/21 04:42:48;;;;;;;10.88;1.95;;;;;;;8.68;100.00;99314.75;5050579;28;20020;-67
2022/11/21 04:45:15;;;;;;;8.20;1.55;;;;;;;8.74;100.00;99314.53;5050085;28;20025;-66
2022/11/21 04:47:43;;;;;;;5.90;1.70;;;;;;;8.78;100.00;99310.88;5050560;28;20029;-66
2022/11/21 04:50:11;;;;;;;4.82;2.03;;;;;;;8.72;100.00;99300.47;5047211;28;20016;-67
2022/11/21 04:52:36;;;;;;;5.82;1.92;;;;;;;8.71;100.00;99298.75;5050446;28;20028;-66
2022/11/21 04:55:02;;;;;;;4.63;2.13;;;;;;;8.82;100.00;99315.13;5050328;28;20029;-66
2022/11/21 04:57:28;;;;;;;9.82;3.53;;;;;;;8.77;100.00;99298.50;5050346;28;20484;-66
2022/11/21 04:59:54;;;;;;;4.40;2.35;;;;;;;8.78;100.00;99305.56;5050109;28;20049;-66
2022/11/21 05:02:20;;;;;;;3.85;1.95;;;;;;;8.82;100.00;99309.81;5050950;28;20032;-66
2022/11/21 05:04:45;;;;;;;9.05;2.75;;;;;;;8.84;100.00;99315.94;5070691;28;20388;-67
2022/11/21 05:07:11;;;;;;;6.75;2.88;;;;;;;8.80;100.00;99309.00;5036341;28;20033;-66
2022/11/21 05:09:36;;;;;;;6.72;2.40;;;;;;;8.84;100.00;99310.63;5034038;28;20079;-66
2022/11/21 05:14:46;;;;;;;3.78;1.75;;;;;;;8.85;100.00;99304.38;5046693;28;20102;-67
2022/11/21 05:17:12;;;;;;;3.53;1.60;;;;;;;8.89;100.00;99319.28;5053850;28;20032;-67
2022/11/21 05:19:37;;;;;;;4.03;2.22;;;;;;;8.88;100.00;99318.41;5042063;28;20397;-66
2022/11/21 05:22:03;;;;;;;4.72;2.00;;;;;;;8.79;100.00;99302.84;5034299;28;20025;-66
2022/11/21 05:24:28;;;;;;;4.78;2.95;;;;;;;8.88;100.00;99312.25;5053199;28;20137;-67
2022/11/21 05:26:53;;;;;;;6.80;1.98;;;;;;;8.83;100.00;99316.88;5052168;28;20142;-67
2022/11/21 05:29:19;;;;;;;3.25;1.92;;;;;;;8.81;100.00;99310.75;5053646;28;20560;-67
2022/11/21 05:31:45;;;;;;;4.53;1.98;;;;;;;8.80;100.00;99315.19;5053566;28;20041;-67
2022/11/21 05:34:10;;;;;;;4.55;2.05;;;;;;;8.78;100.00;99314.34;5053531;28;20112;-67
2022/11/21 05:36:35;;;;;;;3.30;1.75;;;;;;;8.73;100.00;99318.97;5039444;28;20022;-66
2022/11/21 05:39:01;;;;;;;9.13;2.35;;;;;;;8.67;100.00;99320.97;5052341;28;20408;-67
2022/11/21 05:41:26;;;;;;;9.43;2.58;;;;;;;8.65;100.00;99320.19;5053001;28;20043;-67
2022/11/21 05:43:52;;;;;;;7.88;2.03;;;;;;;8.61;100.00;99315.91;5051604;28;20024;-66
2022/11/21 05:46:20;;;;;;;4.70;1.90;;;;;;;8.56;100.00;99315.19;5053264;28;20459;-66
2022/11/21 05:48:47;;;;;;;5.32;2.63;;;;;;;8.54;100.00;99309.06;5039656;28;20033;-66
2022/11/21 05:51:13;;;;;;;4.25;1.95;;;;;;;8.54;100.00;99315.25;5033615;28;20473;-68
2022/11/21 05:53:39;;;;;;;6.20;2.30;;;;;;;8.55;100.00;99318.78;5033238;28;20057;-66
2022/11/21 05:56:13;;;;;;;5.18;2.13;;;;;;;8.61;100.00;99323.84;5033065;28;20643;-67
2022/11/21 05:58:39;;;;;;;9.63;2.58;;;;;;;8.62;100.00;99320.28;5032185;28;20518;-66
2022/11/21 06:01:06;;;;;;;7.75;2.85;;;;;;;8.65;100.00;99325.50;5031869;28;20033;-67
2022/11/21 06:03:37;;;;;;;7.05;2.20;;;;;;;8.65;100.00;99326.31;5045553;28;20036;-66
2022/11/21 06:06:08;;;;;;;6.68;2.25;;;;;;;8.64;100.00;99327.25;5053080;28;20437;-67
2022/11/21 06:08:36;;;;;;;5.65;2.35;;;;;;;8.56;100.00;99329.31;5031982;28;20584;-66
2022/11/21 06:11:02;;;;;;;9.73;2.65;;;;;;;8.49;100.00;99321.63;5051505;28;20028;-67
2022/11/21 06:13:28;;;;;;;5.15;2.90;;;;;;;8.40;100.00;99316.66;5051991;28;20079;-66
2022/11/21 06:15:58;;;;;;;9.00;2.67;;;;;;;8.31;100.00;99322.28;5052781;28;20016;-66
2022/11/21 06:18:24;;;;;;;5.90;3.22;;;;;;;8.25;100.00;99319.84;5051667;28;20029;-66
2022/11/21 06:20:50;;;;;;;6.00;3.03;;;;;;;8.20;100.00;99319.09;5052261;28;20370;-67
2022/11/21 06:23:15;;;;;;;4.97;2.70;;;;;;;8.13;100.00;99326.38;5052603;28;20036;-67
2022/11/21 06:25:42;;;;;;;7.80;2.60;;;;;;;8.14;100.00;99321.97;5051916;28;20048;-67
2022/11/21 06:28:07;;;;;;;5.40;3.03;;;;;;;8.10;100.00;99307.09;5034350;28;20025;-67
2022/11/21 06:30:33;;;;;;;5.22;2.50;;;;;;;8.23;100.00;99321.63;5032890;28;20048;-67
2022/11/21 06:32:59;;;;;;;5.50;2.65;;;;;;;8.24;100.00;99320.78;5030867;28;20022;-66
2022/11/21 06:35:24;;;;;;;5.00;3.00;;;;;;;8.25;100.00;99319.84;5030548;28;20022;-67
2022/11/21 06:37:49;;;;;;;7.57;3.08;;;;;;;8.29;100.00;99321.44;5030829;28;20063;-67
2022/11/21 06:40:15;;;;;;;5.97;3.08;;;;;;;8.31;100.00;99328.44;5031024;28;20029;-67
2022/11/21 06:42:40;;;;;;;8.48;3.40;;;;;;;8.31;100.00;99331.09;5031945;28;20029;-66
2022/11/21 06:45:06;;;;;;;9.40;3.90;;;;;;;8.31;100.00;99332.88;5030935;28;20385;-67
2022/11/21 06:47:35;;;;;;;12.73;5.07;;;;;;;8.31;100.00;99323.16;5032481;28;20120;-66
2022/11/21 06:50:00;;;;;;;7.15;3.58;;;;;;;8.31;100.00;99315.19;5042856;28;20147;-67
2022/11/21 06:52:26;;;;;;;8.98;3.08;;;;;;;8.24;100.00;99312.81;5051919;28;20127;-67
2022/11/21 06:54:51;;;;;;;5.65;3.28;;;;;;;8.32;100.00;99310.78;5052152;28;20060;-67
2022/11/21 06:57:17;;;;;;;6.22;3.50;;;;;;;8.26;100.00;99301.25;5050438;28;20032;-66
2022/11/21 06:59:42;;;;;;;5.55;2.53;;;;;;;8.28;100.00;99315.31;5050132;28;20041;-66
2022/11/21 07:02:14;;;;;;;5.72;2.85;;;;;;;8.28;100.00;99311.78;5049361;28;20021;-66
2022/11/21 07:04:39;;;;;;;9.65;3.10;;;;;;;8.29;100.00;99319.66;5066774;28;20043;-66
2022/11/21 07:07:05;;;;;;;5.80;3.17;;;;;;;8.25;100.00;99309.25;5035505;28;20029;-66
2022/11/21 07:09:32;;;;;;;9.00;4.35;;;;;;;8.31;100.00;99319.63;5031872;28;20047;-66
2022/11/21 07:13:20;;;;;;;3.50;2.33;;;;;;;8.28;100.00;99309.13;5030225;28;20083;-66
2022/11/21 07:14:44;;;;;;;5.38;2.45;;;;;;;8.36;100.00;99322.97;5031751;28;20029;-66
2022/11/21 07:17:11;;;;;;;7.90;2.42;;;;;;;8.39;100.00;99317.56;5049401;28;20108;-67
2022/11/21 07:19:36;;;;;;;6.90;3.08;;;;;;;8.34;100.00;99293.00;5050747;28;20104;-66
2022/11/21 07:22:01;;;;;;;6.38;2.72;;;;;;;8.49;100.00;99303.94;5039996;28;20524;-66
2022/11/21 07:24:27;;;;;;;5.60;2.80;;;;;;;8.51;100.00;99299.47;5051132;28;20029;-67
2022/11/21 07:26:52;;;;;;;5.13;2.70;;;;;;;8.56;100.00;99300.16;5042854;28;20052;-66
2022/11/21 07:29:18;;;;;;;4.57;2.35;;;;;;;8.59;100.00;99300.06;5036418;28;20025;-67
2022/11/21 07:31:43;;;;;;;3.95;2.58;;;;;;;8.67;100.00;99295.34;5033606;28;20115;-67
2022/11/21 07:34:08;;;;;;;7.55;2.80;;;;;;;8.75;100.00;99300.34;5037150;28;20017;-67
2022/11/21 07:36:35;;;;;;;7.05;2.60;;;;;;;8.81;100.00;99295.69;5031116;28;20048;-67
2022/11/21 07:39:00;;;;;;;6.03;3.05;;;;;;;8.88;100.00;99291.88;5041708;28;20469;-67
2022/11/21 07:41:26;;;;;;;6.68;2.80;;;;;;;8.87;100.00;99284.00;5035231;28;20061;-67
2022/11/21 07:43:51;;;;;;;8.35;3.05;;;;;;;9.00;100.00;99293.22;5035555;28;20100;-67
2022/11/21 07:46:16;;;;;;;7.75;3.40;;;;;;;9.01;100.00;99292.31;5039402;28;20388;-67
2022/11/21 07:48:42;;;;;;;7.45;2.95;;;;;;;9.00;100.00;99299.41;5038198;28;20097;-67
2022/11/21 07:51:07;;;;;;;7.28;2.97;;;;;;;9.10;100.00;99291.94;5032915;28;20025;-67
2022/11/21 07:53:32;;;;;;;6.72;3.50;;;;;;;9.14;100.00;99288.25;5031120;28;20021;-67
2022/11/21 07:55:59;;;;;;;9.07;3.88;;;;;;;9.18;100.00;99274.81;5033838;28;20029;-67
2022/11/21 07:58:24;;;;;;;5.07;2.72;;;;;;;9.22;100.00;99275.56;5038887;28;20021;-67
2022/11/21 08:00:49;;;;;;;8.40;2.70;;;;;;;9.24;100.00;99281.69;5036620;28;20099;-66
2022/11/21 08:03:15;;;;;;;5.13;2.60;;;;;;;9.21;100.00;99289.72;5039879;28;20476;-67
2022/11/21 08:05:42;;;;;;;7.20;2.53;;;;;;;9.20;100.00;99280.06;5051694;28;20029;-68
2022/11/21 08:08:09;;;;;;;8.18;1.80;;;;;;;9.19;100.00;99275.69;5040635;28;20021;-67
2022/11/21 08:10:39;;;;;;;4.55;1.90;;;;;;;9.25;100.00;99272.78;5037767;28;20108;-67
2022/11/21 08:13:05;;;;;;;4.53;2.03;;;;;;;9.33;100.00;99282.19;5043560;28;20237;-67
2022/11/21 08:15:30;;;;;;;3.40;1.60;;;;;;;9.38;100.00;99267.84;5035800;28;20808;-67
2022/11/21 08:17:56;;;;;;;5.47;2.17;;;;;;;9.47;100.00;99273.69;5039251;28;20025;-67
2022/11/21 08:20:21;;;;;;;4.00;2.20;;;;;;;9.58;100.00;99265.25;5040247;28;20360;-67
2022/11/21 08:22:47;;;;;;;3.67;1.85;;;;;;;9.63;100.00;99260.63;5040705;28;20040;-67
2022/11/21 08:25:12;;;;;;;3.45;1.92;;;;;;;9.87;100.00;99264.94;5034479;28;20048;-67
2022/11/21 08:27:38;;;;;;;5.80;2.17;;;;;;;10.04;100.00;99263.31;5036227;28;20028;-68
2022/11/21 08:30:06;;;;;;;4.53;2.05;;;;;;;10.19;100.00;99257.38;5036235;28;20083;-67
2022/11/21 08:32:31;;;;;;;3.63;1.50;;;;;;;10.29;100.00;99261.38;5035477;28;20025;-67
2022/11/21 08:34:57;;;;;;;5.15;2.00;;;;;;;10.97;100.00;99241.44;5032391;28;20026;-67
2022/11/21 08:37:22;;;;;;;6.57;2.35;;;;;;;12.28;100.00;99246.44;5036562;28;20021;-67
2022/11/21 08:39:48;;;;;;;5.20;2.08;;;;;;;12.44;91.07;99247.38;5040749;28;20021;-67
2022/11/21 08:42:13;;;;;;;5.55;2.40;;;;;;;12.20;91.51;99230.00;5036215;28;20384;-67
2022/11/21 08:44:38;;;;;;;3.42;1.73;;;;;;;11.91;87.04;99228.81;5036052;28;20025;-67
2022/11/21 08:47:05;;;;;;;4.45;1.85;;;;;;;11.72;87.99;99224.47;5038609;28;20036;-67
2022/11/21 08:49:31;;;;;;;4.60;1.83;;;;;;;11.67;89.22;99229.16;5036458;28;20025;-67
2022/11/21 08:51:56;;;;;;;3.03;1.70;;;;;;;12.89;90.95;99199.56;5034416;28;20599;-67
2022/11/21 08:54:23;;;;;;;5.07;2.15;;;;;;;15.08;78.61;99227.47;5036193;28;20029;-67
2022/11/21 08:56:49;;;;;;;4.57;1.80;;;;;;;15.16;67.20;99227.84;5036706;28;20036;-67
2022/11/21 08:59:16;;;;;;;2.25;1.27;;;;;;;14.03;70.32;99223.28;5044303;28;20041;-67
2022/11/21 09:01:42;;;;;;;3.28;1.63;;;;;;;13.10;76.72;99219.75;5046154;28;20160;-67
2022/11/21 09:04:07;;;;;;;5.75;1.73;;;;;;;14.84;75.45;99217.44;5034840;28;20049;-68
2022/11/21 09:06:33;;;;;;;7.07;2.65;;;;;;;16.17;66.68;99205.03;5034928;28;20041;-68
2022/11/21 09:08:59;;;;;;;9.07;2.70;;;;;;;16.68;61.11;99205.97;5035724;28;20068;-67
2022/11/21 09:11:25;;;;;;;4.47;1.40;;;;;;;16.64;61.90;99207.13;5035705;28;20029;-67
2022/11/21 09:19:21;;;;;;;3.83;1.23;;;;;;;20.32;48.47;99188.03;5036763;28;20056;-67
2022/11/21 09:21:50;;;;;;;4.05;1.13;;;;;;;20.67;47.01;99188.53;5035534;28;20091;-67
2022/11/21 09:24:16;;;;;;;3.58;1.20;;;;;;;20.68;46.19;99179.47;5036553;28;20904;-67
2022/11/21 09:26:43;;;;;;;2.15;0.80;;;;;;;20.75;46.51;99180.66;5036873;28;20021;-67
2022/11/21 09:29:13;;;;;;;2.03;0.80;;;;;;;21.32;45.17;99176.50;5036212;28;20026;-67
2022/11/21 09:31:39;;;;;;;2.60;0.93;;;;;;;21.64;44.27;99174.47;5036817;28;20099;-67
2022/11/21 09:34:05;;;;;;;5.05;1.15;;;;;;;21.68;43.48;99165.91;5037591;28;20507;-68
2022/11/21 09:36:30;;;;;;;3.05;0.80;;;;;;;21.27;43.17;99168.81;5034973;28;20029;-67
2022/11/21 09:38:56;;;;;;;2.72;1.10;;;;;;;20.87;44.34;99163.34;5034070;28;20025;-68
2022/11/21 09:41:51;;;;;;;4.72;1.00;;;;;;;20.37;45.80;99164.19;5035259;28;20017;-67
2022/11/21 09:44:35;;;;;;;4.10;1.30;;;;;;;18.61;48.27;99170.81;5037219;28;20120;-67
2022/11/21 09:47:22;;;;;;;4.07;0.90;;;;;;;17.04;51.05;99171.13;5035151;28;20057;-67
2022/11/21 09:50:00;;;;;;;8.10;1.63;;;;;;;17.25;54.39;99152.59;5033476;28;20072;-67
2022/11/21 09:52:55;;;;;;;6.55;1.88;;;;;;;18.88;52.31;99151.59;5032407;28;20090;-67
2022/11/21 09:55:31;;;;;;;5.88;1.63;;;;;;;20.02;47.81;99146.53;5035142;28;20045;-67
2022/11/21 09:58:01;;;;;;;5.00;1.35;;;;;;;20.86;45.27;99137.31;5035434;28;20115;-68
2022/11/21 10:00:26;;;;;;;3.67;1.00;;;;;;;20.52;45.41;99135.84;5035089;28;20893;-68
2022/11/21 10:02:52;;;;;;;2.03;0.90;;;;;;;20.69;43.50;99127.13;5034395;28;20028;-67
2022/11/21 10:05:29;;;;;;;4.85;1.38;;;;;;;21.44;43.59;99118.56;5035987;28;20082;-68
2022/11/21 10:08:02;;;;;;;7.57;2.17;;;;;;;21.12;43.16;99117.94;5034160;28;20101;-68
2022/11/21 10:10:40;;;;;;;4.82;1.95;;;;;;;20.33;44.86;99108.72;5034552;28;20480;-67
2022/11/21 10:13:17;;;;;;;3.25;1.33;;;;;;;19.43;47.75;99108.38;5034443;28;20029;-67
2022/11/21 10:16:12;;;;;;;4.88;1.02;;;;;;;18.99;47.40;99100.38;5033717;28;20032;-67
2022/11/21 10:18:50;;;;;;;3.28;1.00;;;;;;;19.65;47.25;99106.47;5035444;28;20116;-67
2022/11/21 10:21:42;;;;;;;7.38;2.13;;;;;;;20.63;44.85;99091.66;5034634;28;20021;-67
2022/11/21 10:24:26;;;;;;;5.57;1.70;;;;;;;20.43;45.14;99103.34;5034870;28;20120;-67
2022/11/21 10:26:54;;;;;;;;;;;;;;;20.17;45.36;99093.97;5035174;28;20039;-67
2022/11/21 10:29:22;;;;;;;4.05;1.55;;;;;;;19.76;46.31;99083.13;5036273;28;19920;-67
2022/11/21 10:31:49;;;;;;;5.47;1.05;;;;;;;20.01;44.76;99078.22;5036051;28;20924;-67
2022/11/21 10:34:25;;;;;;;4.72;0.95;;;;;;;20.02;46.11;99066.41;5032735;28;20021;-68
2022/11/21 10:36:59;;;;;;;3.35;1.10;;;;;;;20.21;47.15;99061.19;5033811;28;20116;-68
2022/11/21 10:39:52;;;;;;;3.45;1.20;;;;;;;19.89;45.76;99057.66;5032935;28;20033;-68
2022/11/21 10:42:50;;;;;;;2.35;1.27;;;;;;;20.24;45.03;99044.72;5033054;28;20115;-68
2022/11/21 10:45:16;;;;;;;2.25;1.10;;;;;;;20.14;44.39;99043.75;5031677;28;20178;-68
2022/11/21 10:47:43;;;;;;;4.05;0.80;;;;;;;20.47;46.17;99031.88;5035191;28;20109;-68
2022/11/21 10:50:08;;;;;;;2.78;0.80;;;;;;;20.79;44.02;99029.84;5041573;28;20087;-68
2022/11/21 10:52:44;;;;;;;3.58;1.30;;;;;;;20.78;44.45;99023.59;5034554;28;20025;-67
2022/11/21 10:55:12;;;;;;;6.00;1.42;;;;;;;20.85;45.05;99013.97;5032923;28;20029;-68
2022/11/21 10:57:46;;;;;;;2.40;0.82;;;;;;;21.01;44.61;99012.56;5034460;28;20029;-68
2022/11/21 11:00:11;;;;;;;4.97;1.10;;;;;;;21.27;43.58;99006.50;5032283;28;20132;-68
2022/11/21 11:02:37;;;;;;;2.55;0.80;;;;;;;21.02;42.80;99003.47;5032421;28;20109;-68
2022/11/21 11:05:15;;;;;;;5.60;1.17;;;;;;;21.20;44.36;98996.38;5035031;28;20027;-68
2022/11/21 11:07:41;;;;;;;2.95;0.77;;;;;;;21.04;44.14;98996.09;5033586;28;20118;-68
2022/11/21 11:10:17;;;;;;;6.78;1.10;;;;;;;21.13;44.57;98988.00;5032643;28;20033;-68
2022/11/21 11:15:31;;;;;;;2.65;0.77;;;;;;;20.95;42.97;98986.94;5032372;28;20097;-68
2022/11/21 11:17:59;;;;;;;2.35;1.00;;;;;;;19.70;45.51;98987.38;5034852;28;20028;-68
2022/11/21 11:20:38;;;;;;;1.40;0.77;;;;;;;19.23;47.75;98980.56;5033121;28;20084;-68
2022/11/21 11:23:18;;;;;;;2.20;1.02;;;;;;;19.17;48.32;98966.75;5032756;28;20395;-68
2022/11/21 11:25:49;;;;;;;4.63;1.13;;;;;;;19.41;47.50;98967.41;5033801;28;20070;-68
2022/11/21 11:28:18;;;;;;;5.82;1.05;;;;;;;19.92;47.80;98952.13;5032558;28;20154;-68
2022/11/21 11:30:44;;;;;;;2.70;1.13;;;;;;;20.50;45.05;98954.09;5035408;28;20096;-68
2022/11/21 11:33:38;;;;;;;3.85;1.10;;;;;;;20.36;44.75;98945.53;5032356;28;20170;-68
2022/11/21 11:36:13;;;;;;;2.88;1.00;;;;;;;20.02;45.40;98942.22;5032594;28;20025;-68
2022/11/21 11:38:42;;;;;;;3.28;1.00;;;;;;;19.33;45.46;98949.19;5034864;28;20040;-68
2022/11/21 11:41:23;;;;;;;5.35;1.10;;;;;;;18.53;47.46;98943.44;5038403;28;20443;-67
2022/11/21 11:50:20;;;;;;;4.00;1.30;;;;;;;16.48;56.41;98924.63;5038056;28;20083;-68
2022/11/21 11:53:03;;;;;;;4.03;1.45;;;;;;;15.92;55.76;98919.81;5038617;28;20107;-68
2022/11/21 11:55:36;;;;;;;5.75;1.10;;;;;;;15.33;57.98;98899.88;5036089;28;20922;-68